Time;durP1;ratioP1;P1;durP2;ratioP2;P2;SDS_P1;SDS_P2;PMS_P1;PMS_P2;Temp;Humidity;BMP_temperature;BMP_pressure;BME280_temperature;BME280_humidity;BME280_pressure;Samples;Min_cycle;Max_cycle;Signal;HPM_P1;HPM_P2
2022/12/22 03:25:50;;;;;;;2.92;1.20;;;;;;;;;;4915773;29;20059;-75
2022/12/22 03:28:18;;;;;;;1.90;0.73;;;;;;;;;;4917560;29;20067;-75
2022/12/22 03:30:44;;;;;;;1.25;0.90;;;;;;;;;;4931098;29;20056;-76
2022/12/22 03:33:11;;;;;;;0.82;0.50;;;;;;;;;;4949340;29;20059;-75
2022/12/22 03:35:38;;;;;;;1.58;0.52;;;;;;;;;;4950521;29;20063;-76
2022/12/22 03:38:04;;;;;;;1.15;0.75;;;;;;;;;;4966014;28;20058;-76
2022/12/22 03:40:31;;;;;;;0.52;0.40;;;;;;;;;;4966096;28;20064;-76
2022/12/22 03:48:28;;;;;;;1.30;0.63;;;;;;;;;;4935351;29;20424;-76
2022/12/22 03:50:55;;;;;;;1.23;0.73;;;;;;;;;;4918317;29;20103;-76
2022/12/22 03:53:21;;;;;;;0.80;0.65;;;;;;;;;;4933876;29;20051;-76
2022/12/22 03:55:48;;;;;;;0.82;0.60;;;;;;;;;;4949865;29;20055;-76
2022/12/22 03:58:15;;;;;;;0.75;0.70;;;;;;;;;;4949372;29;20067;-76
2022/12/22 04:00:41;;;;;;;0.88;0.57;;;;;;;;;;4949842;28;20056;-76
2022/12/22 04:03:08;;;;;;;2.13;0.82;;;;;;;;;;4949705;29;20142;-75
2022/12/22 04:05:35;;;;;;;1.20;0.63;;;;;;;;;;4949048;28;20064;-75
2022/12/22 04:08:02;;;;;;;2.60;0.73;;;;;;;;;;4949507;29;20056;-75
2022/12/22 04:13:14;;;;;;;0.80;0.70;;;;;;;;;;4914880;29;20556;-75
2022/12/22 04:15:40;;;;;;;1.00;0.43;;;;;;;;;;4946400;29;20060;-75
2022/12/22 04:18:07;;;;;;;0.85;0.50;;;;;;;;;;4914489;29;20107;-75
2022/12/22 04:20:34;;;;;;;0.73;0.40;;;;;;;;;;4946168;29;20520;-75
2022/12/22 04:23:01;;;;;;;0.50;0.30;;;;;;;;;;4928738;29;20055;-75
2022/12/22 04:25:28;;;;;;;1.40;0.52;;;;;;;;;;4965300;28;20644;-76
2022/12/22 04:27:55;;;;;;;1.40;0.60;;;;;;;;;;4965298;28;20059;-77
2022/12/22 04:30:21;;;;;;;1.17;0.50;;;;;;;;;;4966086;28;20058;-78
2022/12/22 04:32:48;;;;;;;1.20;0.45;;;;;;;;;;4967234;28;20062;-77
2022/12/22 04:35:15;;;;;;;1.30;0.30;;;;;;;;;;4961608;28;20493;-78
2022/12/22 04:37:42;;;;;;;0.95;0.60;;;;;;;;;;4938377;29;20059;-78
2022/12/22 04:40:08;;;;;;;0.65;0.45;;;;;;;;;;4954272;29;20059;-78
2022/12/22 04:42:35;;;;;;;3.65;0.88;;;;;;;;;;4959868;28;20051;-78
2022/12/22 04:45:02;;;;;;;1.13;0.50;;;;;;;;;;4923091;29;20136;-77
2022/12/22 04:47:29;;;;;;;0.95;0.57;;;;;;;;;;4918622;29;20055;-77
2022/12/22 04:49:55;;;;;;;1.90;0.93;;;;;;;;;;4920254;29;20416;-77
2022/12/22 04:55:59;;;;;;;1.55;0.70;;;;;;;;;;4946439;29;20052;-78
2022/12/22 04:58:27;;;;;;;0.80;0.50;;;;;;;;;;4940125;29;20063;-79
2022/12/22 05:00:54;;;;;;;1.95;0.50;;;;;;;;;;4955735;29;20097;-79
2022/12/22 05:03:21;;;;;;;1.88;0.55;;;;;;;;;;4924418;29;20055;-78
2022/12/22 05:05:48;;;;;;;1.73;0.90;;;;;;;;;;4935727;29;20058;-77
2022/12/22 05:08:15;;;;;;;4.03;2.03;;;;;;;;;;4966382;28;20056;-77
2022/12/22 05:10:41;;;;;;;5.40;2.70;;;;;;;;;;4935857;29;20052;-78
2022/12/22 05:13:08;;;;;;;2.30;1.05;;;;;;;;;;4950672;29;20052;-78
2022/12/22 05:15:35;;;;;;;2.78;1.10;;;;;;;;;;4948259;28;20052;-77
2022/12/22 05:18:03;;;;;;;3.67;0.95;;;;;;;;;;4945136;28;20120;-78
2022/12/22 05:20:30;;;;;;;0.75;0.47;;;;;;;;;;4920397;29;20043;-78
2022/12/22 05:22:58;;;;;;;0.40;0.40;;;;;;;;;;4950532;28;20803;-78
2022/12/22 05:25:25;;;;;;;1.10;0.50;;;;;;;;;;4950557;29;20500;-78
2022/12/22 05:27:57;;;;;;;2.92;0.82;;;;;;;;;;4948304;29;20147;-77
2022/12/22 05:30:23;;;;;;;1.23;0.70;;;;;;;;;;4934462;29;20048;-78
2022/12/22 05:32:50;;;;;;;2.13;0.90;;;;;;;;;;4947078;28;20092;-78
2022/12/22 05:35:17;;;;;;;2.15;0.70;;;;;;;;;;4914352;29;20060;-77
2022/12/22 05:37:44;;;;;;;1.80;0.70;;;;;;;;;;4932222;29;20051;-77
2022/12/22 05:40:11;;;;;;;2.22;0.50;;;;;;;;;;4936272;29;20055;-78
2022/12/22 05:42:38;;;;;;;3.30;0.70;;;;;;;;;;4936081;29;20059;-78
2022/12/22 05:45:17;;;;;;;4.63;0.93;;;;;;;;;;4949767;29;20062;-78
2022/12/22 05:47:46;;;;;;;2.95;0.60;;;;;;;;;;4948349;29;20131;-77
2022/12/22 05:50:14;;;;;;;4.55;1.15;;;;;;;;;;4948472;29;20063;-78
2022/12/22 05:52:41;;;;;;;3.70;0.90;;;;;;;;;;4932659;29;20048;-79
2022/12/22 05:55:09;;;;;;;2.75;0.60;;;;;;;;;;4949490;29;20064;-78
2022/12/22 05:57:37;;;;;;;1.25;0.70;;;;;;;;;;4921327;29;20051;-82
2022/12/22 06:00:07;;;;;;;3.08;1.23;;;;;;;;;;4966926;28;20047;-83
2022/12/22 06:02:34;;;;;;;2.75;0.60;;;;;;;;;;4958749;28;20458;-78
2022/12/22 06:05:01;;;;;;;2.47;0.70;;;;;;;;;;4946687;28;20063;-77
2022/12/22 06:07:28;;;;;;;3.88;0.75;;;;;;;;;;4945865;29;20059;-77
2022/12/22 06:09:54;;;;;;;3.17;0.77;;;;;;;;;;4944872;29;20048;-77
2022/12/22 06:12:21;;;;;;;4.13;1.33;;;;;;;;;;4929610;29;20452;-77
2022/12/22 06:14:48;;;;;;;7.00;1.27;;;;;;;;;;4948994;29;20114;-77
2022/12/22 06:17:15;;;;;;;3.92;0.82;;;;;;;;;;4949602;29;20115;-77
2022/12/22 06:19:41;;;;;;;3.55;0.98;;;;;;;;;;4950918;29;20071;-78
2022/12/22 06:22:08;;;;;;;2.55;0.68;;;;;;;;;;4935709;29;20087;-78
2022/12/22 06:24:35;;;;;;;4.15;1.10;;;;;;;;;;4951616;29;20051;-78
2022/12/22 06:27:01;;;;;;;6.03;1.02;;;;;;;;;;4939488;29;20064;-77
2022/12/22 06:29:28;;;;;;;3.47;1.05;;;;;;;;;;4938320;29;20077;-78
2022/12/22 06:31:55;;;;;;;1.42;0.70;;;;;;;;;;4956058;29;20051;-78
2022/12/22 06:34:21;;;;;;;4.28;1.23;;;;;;;;;;4940789;29;20063;-78
2022/12/22 06:36:48;;;;;;;3.53;1.15;;;;;;;;;;4940548;29;20056;-78
2022/12/22 06:39:16;;;;;;;4.22;0.93;;;;;;;;;;4939715;29;20075;-79
2022/12/22 06:44:28;;;;;;;3.80;0.85;;;;;;;;;;4942372;29;20055;-78
2022/12/22 06:46:55;;;;;;;4.80;1.13;;;;;;;;;;4956063;28;20051;-80
2022/12/22 06:49:22;;;;;;;7.35;1.33;;;;;;;;;;4953144;29;20063;-78
2022/12/22 06:51:49;;;;;;;5.18;0.90;;;;;;;;;;4952505;29;20059;-77
2022/12/22 06:54:16;;;;;;;2.75;1.00;;;;;;;;;;4969318;28;20062;-78
2022/12/22 06:56:51;;;;;;;5.05;1.10;;;;;;;;;;4938985;29;20052;-78
2022/12/22 06:59:17;;;;;;;2.85;1.05;;;;;;;;;;4922161;29;20066;-78
2022/12/22 07:01:44;;;;;;;4.53;1.20;;;;;;;;;;4938731;29;20055;-85
2022/12/22 07:04:15;;;;;;;3.30;1.00;;;;;;;;;;4954423;28;20056;-79
2022/12/22 07:06:42;;;;;;;4.25;0.98;;;;;;;;;;4936017;29;20055;-79
2022/12/22 07:09:09;;;;;;;5.32;1.27;;;;;;;;;;4951912;29;20469;-79
2022/12/22 07:11:35;;;;;;;6.63;1.88;;;;;;;;;;4953621;29;20047;-81
2022/12/22 07:14:02;;;;;;;6.90;1.20;;;;;;;;;;4956174;28;20056;-81
2022/12/22 07:16:29;;;;;;;5.28;1.40;;;;;;;;;;4956248;29;20056;-80
2022/12/22 07:18:56;;;;;;;6.82;1.58;;;;;;;;;;4956609;29;20054;-80
2022/12/22 07:21:23;;;;;;;8.93;1.42;;;;;;;;;;4939860;29;20048;-82
2022/12/22 07:23:49;;;;;;;7.75;1.90;;;;;;;;;;4954964;29;20060;-80
2022/12/22 07:26:16;;;;;;;3.67;1.23;;;;;;;;;;4938156;29;20055;-79
2022/12/22 07:28:43;;;;;;;10.50;2.10;;;;;;;;;;4963137;29;20051;-80
2022/12/22 07:31:10;;;;;;;7.45;1.25;;;;;;;;;;4962706;29;20051;-79
2022/12/22 07:33:37;;;;;;;4.32;1.02;;;;;;;;;;4958759;29;20051;-79
2022/12/22 07:36:10;;;;;;;6.50;1.63;;;;;;;;;;4955608;29;20062;-80
2022/12/22 07:38:39;;;;;;;6.65;1.50;;;;;;;;;;4954515;29;20143;-80
2022/12/22 07:43:53;;;;;;;10.02;1.60;;;;;;;;;;4962754;28;20139;-81
2022/12/22 07:46:19;;;;;;;5.53;1.33;;;;;;;;;;4951315;29;20505;-82
2022/12/22 07:51:36;;;;;;;6.90;1.50;;;;;;;;;;4938719;29;20423;-80
2022/12/22 07:54:07;;;;;;;6.22;1.67;;;;;;;;;;4935096;29;20060;-81
2022/12/22 07:56:34;;;;;;;7.00;1.80;;;;;;;;;;4935265;29;20052;-82
2022/12/22 07:59:00;;;;;;;6.68;2.00;;;;;;;;;;4949938;29;20517;-82
2022/12/22 08:01:27;;;;;;;5.00;1.30;;;;;;;;;;4950152;29;20055;-81
2022/12/22 08:03:54;;;;;;;4.28;1.10;;;;;;;;;;4952652;29;20094;-80
2022/12/22 08:06:21;;;;;;;7.15;1.55;;;;;;;;;;4935996;29;20052;-79
2022/12/22 08:08:48;;;;;;;6.22;1.08;;;;;;;;;;4951970;29;20063;-79
2022/12/22 08:11:15;;;;;;;4.10;0.82;;;;;;;;;;4951258;29;20055;-79
2022/12/22 08:13:45;;;;;;;4.85;1.10;;;;;;;;;;4938765;29;20051;-82
2022/12/22 08:16:13;;;;;;;4.80;1.17;;;;;;;;;;4956359;29;20058;-81
2022/12/22 08:18:40;;;;;;;5.72;1.55;;;;;;;;;;4951316;29;20127;-81
2022/12/22 08:21:07;;;;;;;5.15;1.85;;;;;;;;;;4952926;29;20135;-80
2022/12/22 08:23:34;;;;;;;6.32;2.47;;;;;;;;;;4962694;28;20047;-81
2022/12/22 08:26:22;;;;;;;5.70;1.20;;;;;;;;;;4935721;29;20139;-74
2022/12/22 08:29:04;;;;;;;3.92;1.05;;;;;;;;;;4948599;29;20066;-79
2022/12/22 08:31:31;;;;;;;4.97;1.20;;;;;;;;;;4948924;28;20043;-79
2022/12/22 08:33:59;;;;;;;6.78;1.30;;;;;;;;;;4932718;29;20055;-78
2022/12/22 08:36:26;;;;;;;5.78;1.17;;;;;;;;;;4934023;29;20048;-82
2022/12/22 08:38:52;;;;;;;4.22;1.13;;;;;;;;;;4955142;29;20556;-81
2022/12/22 08:41:48;;;;;;;5.88;1.17;;;;;;;;;;4926371;29;20066;-82
2022/12/22 08:44:06;;;;;;;4.90;1.45;;;;;;;;;;4937503;29;20054;-83
2022/12/22 08:46:32;;;;;;;4.43;1.20;;;;;;;;;;4968426;28;20070;-82
2022/12/22 08:48:59;;;;;;;6.18;1.45;;;;;;;;;;4937616;29;20090;-82
2022/12/22 08:51:26;;;;;;;6.78;1.70;;;;;;;;;;4953386;29;20134;-82
2022/12/22 08:53:53;;;;;;;7.28;1.10;;;;;;;;;;4936947;29;20075;-83
2022/12/22 08:56:35;;;;;;;3.83;1.10;;;;;;;;;;4936005;29;20281;-79
2022/12/22 08:59:04;;;;;;;9.98;1.55;;;;;;;;;;4919809;29;20393;-78
2022/12/22 09:01:34;;;;;;;11.32;1.92;;;;;;;;;;4924666;29;20048;-81
2022/12/22 09:04:03;;;;;;;4.57;1.83;;;;;;;;;;4941971;29;20138;-81
2022/12/22 09:06:30;;;;;;;7.32;1.30;;;;;;;;;;4958193;29;20051;-81
2022/12/22 09:09:08;;;;;;;2.97;1.05;;;;;;;;;;4932195;29;20063;-82
2022/12/22 09:11:36;;;;;;;6.50;1.30;;;;;;;;;;4943905;29;20075;-82
2022/12/22 09:14:04;;;;;;;5.13;1.80;;;;;;;;;;4940669;29;20086;-83
2022/12/22 09:16:32;;;;;;;6.22;1.20;;;;;;;;;;4937710;29;20119;-83
2022/12/22 09:19:00;;;;;;;3.65;1.38;;;;;;;;;;4944073;29;20052;-81
2022/12/22 09:21:27;;;;;;;7.18;1.73;;;;;;;;;;4956315;29;20055;-82
2022/12/22 09:23:54;;;;;;;8.20;1.88;;;;;;;;;;4941503;29;20123;-81
2022/12/22 09:26:23;;;;;;;6.88;1.35;;;;;;;;;;4925533;29;20080;-82
2022/12/22 09:28:50;;;;;;;5.88;1.55;;;;;;;;;;4955983;29;20132;-81
2022/12/22 09:31:19;;;;;;;6.15;1.67;;;;;;;;;;4955883;29;20068;-82
2022/12/22 09:33:46;;;;;;;5.38;1.20;;;;;;;;;;4957410;28;20047;-80
2022/12/22 09:36:14;;;;;;;7.82;1.20;;;;;;;;;;4972318;28;20055;-81
2022/12/22 09:38:41;;;;;;;8.55;1.80;;;;;;;;;;4956659;29;20122;-81
2022/12/22 09:41:21;;;;;;;6.50;1.55;;;;;;;;;;4958124;29;20528;-81
2022/12/22 09:43:48;;;;;;;10.52;2.42;;;;;;;;;;4970028;28;20066;-82
2022/12/22 09:46:20;;;;;;;6.47;1.50;;;;;;;;;;4959001;29;20055;-81
2022/12/22 09:48:48;;;;;;;6.40;1.67;;;;;;;;;;4942976;29;20051;-80
2022/12/22 09:51:16;;;;;;;10.38;1.83;;;;;;;;;;4940820;29;20110;-80
2022/12/22 09:53:54;;;;;;;5.43;1.70;;;;;;;;;;4957082;29;20066;-81
2022/12/22 09:56:22;;;;;;;8.35;1.42;;;;;;;;;;4927815;29;20052;-81
2022/12/22 09:58:50;;;;;;;9.52;1.35;;;;;;;;;;4974393;28;20055;-80
2022/12/22 10:02:08;;;;;;;9.48;1.80;;;;;;;;;;4944239;29;20434;-80
2022/12/22 10:04:56;;;;;;;4.10;1.60;;;;;;;;;;4958624;28;20081;-80
2022/12/22 10:07:33;;;;;;;4.82;1.38;;;;;;;;;;4961406;28;20051;-80
2022/12/22 10:10:11;;;;;;;8.02;1.60;;;;;;;;;;4941733;29;20120;-81
2022/12/22 10:12:38;;;;;;;6.50;2.03;;;;;;;;;;4928468;29;20056;-80
2022/12/22 10:15:06;;;;;;;8.20;1.38;;;;;;;;;;4926732;29;20431;-81
2022/12/22 10:17:34;;;;;;;5.95;1.27;;;;;;;;;;4942577;29;20071;-81
2022/12/22 10:20:27;;;;;;;7.57;1.85;;;;;;;;;;4943847;29;20060;-80
2022/12/22 10:23:01;;;;;;;4.65;1.20;;;;;;;;;;4941783;29;20055;-80
2022/12/22 10:25:32;;;;;;;5.05;1.27;;;;;;;;;;4926523;29;20059;-80
2022/12/22 10:28:32;;;;;;;6.97;1.10;;;;;;;;;;4938864;29;20052;-80
2022/12/22 10:31:32;;;;;;;5.07;1.20;;;;;;;;;;4952433;28;20051;-80
2022/12/22 10:34:15;;;;;;;3.80;1.67;;;;;;;;;;4947717;29;20087;-79
2022/12/22 10:36:48;;;;;;;6.03;1.23;;;;;;;;;;4933507;29;20048;-79
2022/12/22 10:39:39;;;;;;;7.95;1.45;;;;;;;;;;4936564;29;20051;-81
2022/12/22 10:42:12;;;;;;;6.50;1.45;;;;;;;;;;4934946;29;20047;-82
2022/12/22 10:44:39;;;;;;;;;;;;;;;;;;4951990;28;20048;-80
2022/12/22 10:47:14;;;;;;;3.90;1.00;;;;;;;;;;4950467;29;19923;-78
2022/12/22 10:49:46;;;;;;;2.25;1.45;;;;;;;;;;4951128;28;20079;-81
2022/12/22 10:52:33;;;;;;;5.32;1.55;;;;;;;;;;4918122;29;20062;-80
2022/12/22 10:55:27;;;;;;;5.30;1.52;;;;;;;;;;4919079;29;20060;-79
2022/12/22 10:58:17;;;;;;;7.18;2.22;;;;;;;;;;4949757;28;20055;-81
2022/12/22 11:00:44;;;;;;;5.90;1.65;;;;;;;;;;4933125;29;20142;-81
2022/12/22 11:03:13;;;;;;;5.43;1.65;;;;;;;;;;4924518;29;20076;-80
2022/12/22 11:05:50;;;;;;;5.30;1.88;;;;;;;;;;4933614;29;20071;-80
2022/12/22 11:08:19;;;;;;;6.43;1.67;;;;;;;;;;4930326;29;20681;-77
2022/12/22 11:10:54;;;;;;;9.30;2.90;;;;;;;;;;4938634;28;20074;-82
2022/12/22 11:13:43;;;;;;;6.22;1.85;;;;;;;;;;4943870;29;20122;-81
2022/12/22 11:16:26;;;;;;;6.32;2.13;;;;;;;;;;4944660;28;20051;-81
2022/12/22 11:19:15;;;;;;;4.88;2.08;;;;;;;;;;4950574;29;20397;-80
2022/12/22 11:22:04;;;;;;;4.43;1.60;;;;;;;;;;4964379;28;20065;-80
2022/12/22 11:24:37;;;;;;;6.28;2.90;;;;;;;;;;4950365;29;20051;-80
2022/12/22 11:27:23;;;;;;;10.05;3.95;;;;;;;;;;4948722;29;20115;-79
2022/12/22 11:29:56;;;;;;;9.40;4.47;;;;;;;;;;4951213;29;20055;-82
2022/12/22 11:32:35;;;;;;;;;;;;;;;;;;4966706;28;20066;-79
2022/12/22 11:35:38;;;;;;;7.57;2.90;;;;;;;;;;4951081;29;20077;-77
2022/12/22 11:38:29;;;;;;;19.93;8.33;;;;;;;;;;4933893;29;20086;-77
2022/12/22 11:41:03;;;;;;;25.23;11.05;;;;;;;;;;4939939;29;20051;-79
2022/12/22 11:43:55;;;;;;;16.15;7.90;;;;;;;;;;4936132;29;20135;-78
2022/12/22 11:46:54;;;;;;;7.20;3.58;;;;;;;;;;4939163;29;20052;-79
2022/12/22 11:49:40;;;;;;;5.32;3.90;;;;;;;;;;4932084;29;20465;-79
2022/12/22 11:52:31;;;;;;;3.15;1.40;;;;;;;;;;4953949;28;20134;-79
2022/12/22 11:55:18;;;;;;;4.68;1.50;;;;;;;;;;4930083;29;20070;-78
2022/12/22 11:57:52;;;;;;;4.00;1.27;;;;;;;;;;4947318;29;20102;-83
2022/12/22 12:00:22;;;;;;;3.28;1.10;;;;;;;;;;4945077;29;20059;-81
2022/12/22 12:03:19;;;;;;;6.78;0.98;;;;;;;;;;4943810;29;20110;-80
2022/12/22 12:06:06;;;;;;;1.55;0.77;;;;;;;;;;4945273;28;20050;-81
2022/12/22 12:08:53;;;;;;;4.40;0.73;;;;;;;;;;4962366;28;20075;-81
2022/12/22 12:11:55;;;;;;;2.22;0.50;;;;;;;;;;4945534;29;20051;-81
2022/12/22 12:14:30;;;;;;;3.38;0.90;;;;;;;;;;4946091;28;20090;-81
2022/12/22 12:16:59;;;;;;;2.45;0.85;;;;;;;;;;4945974;29;20070;-80
2022/12/22 12:19:49;;;;;;;2.80;0.82;;;;;;;;;;4927861;29;20059;-81
2022/12/22 12:22:54;;;;;;;1.27;0.75;;;;;;;;;;4948740;29;20060;-81
2022/12/22 12:25:38;;;;;;;3.33;0.60;;;;;;;;;;4936882;29;20063;-81
2022/12/22 12:28:06;;;;;;;3.22;0.82;;;;;;;;;;4941983;28;20055;-81
2022/12/22 12:31:10;;;;;;;1.27;0.40;;;;;;;;;;4948316;29;20067;-81
2022/12/22 12:33:46;;;;;;;2.03;0.40;;;;;;;;;;4938345;29;20086;-81
2022/12/22 12:36:26;;;;;;;1.90;0.52;;;;;;;;;;4942368;29;20110;-81
2022/12/22 12:39:23;;;;;;;4.13;1.17;;;;;;;;;;4943313;29;20084;-84
2022/12/22 12:42:27;;;;;;;0.95;0.32;;;;;;;;;;4942805;28;20059;-83
2022/12/22 12:44:55;;;;;;;4.60;0.73;;;;;;;;;;4940076;29;20114;-82
2022/12/22 12:47:31;;;;;;;2.75;0.90;;;;;;;;;;4940617;29;20100;-83
2022/12/22 12:50:25;;;;;;;2.05;0.57;;;;;;;;;;4928295;28;20095;-85
2022/12/22 12:53:05;;;;;;;0.75;0.40;;;;;;;;;;4942217;29;20044;-82
2022/12/22 12:55:38;;;;;;;2.85;0.80;;;;;;;;;;4948669;28;20057;-82
2022/12/22 12:58:11;;;;;;;3.58;0.80;;;;;;;;;;4940208;29;20056;-82
2022/12/22 13:00:41;;;;;;;2.25;0.57;;;;;;;;;;4939087;28;20127;-84
2022/12/22 13:03:22;;;;;;;4.72;0.80;;;;;;;;;;4954948;28;20067;-80
2022/12/22 13:06:45;;;;;;;1.95;0.60;;;;;;;;;;4943205;29;20083;-74
2022/12/22 13:09:23;;;;;;;0.82;0.40;;;;;;;;;;4940368;29;20062;-80
2022/12/22 13:12:33;;;;;;;2.47;0.70;;;;;;;;;;4943716;29;20079;-80
2022/12/22 13:15:01;;;;;;;2.08;0.80;;;;;;;;;;4957477;28;20122;-81
2022/12/22 13:17:43;;;;;;;4.57;0.80;;;;;;;;;;4917351;29;20106;-80
2022/12/22 13:20:14;;;;;;;2.67;1.52;;;;;;;;;;4932912;29;20051;-80
2022/12/22 13:22:42;;;;;;;3.63;1.00;;;;;;;;;;4958593;28;20063;-80
2022/12/22 13:25:16;;;;;;;2.05;0.50;;;;;;;;;;4925772;29;20071;-80
2022/12/22 13:27:43;;;;;;;3.70;1.02;;;;;;;;;;4946374;29;20066;-80
2022/12/22 13:30:15;;;;;;;2.75;0.90;;;;;;;;;;4946836;29;20121;-80
2022/12/22 13:32:45;;;;;;;3.28;0.60;;;;;;;;;;4947552;28;20055;-80
2022/12/22 13:35:22;;;;;;;2.08;1.17;;;;;;;;;;4931438;29;20052;-80
2022/12/22 13:38:00;;;;;;;2.58;0.80;;;;;;;;;;4951098;28;20419;-81
2022/12/22 13:40:38;;;;;;;4.03;1.33;;;;;;;;;;4931703;29;20059;-80
2022/12/22 13:43:15;;;;;;;3.53;0.88;;;;;;;;;;4917302;29;20124;-80
2022/12/22 13:45:48;;;;;;;1.85;0.60;;;;;;;;;;4946378;28;20066;-79
2022/12/22 13:48:51;;;;;;;6.72;1.63;;;;;;;;;;4932651;28;20062;-80
2022/12/22 13:51:24;;;;;;;1.50;0.57;;;;;;;;;;4879553;29;20088;-80
2022/12/22 13:54:01;;;;;;;3.90;1.17;;;;;;;;;;4908893;29;20047;-80
2022/12/22 13:57:10;;;;;;;6.00;2.13;;;;;;;;;;4926383;29;20056;-81
2022/12/22 13:59:45;;;;;;;3.22;0.90;;;;;;;;;;4950825;29;20059;-81
2022/12/22 14:02:15;;;;;;;2.90;0.90;;;;;;;;;;4950794;29;20055;-80
2022/12/22 14:04:44;;;;;;;2.05;0.63;;;;;;;;;;4932706;29;20043;-80
2022/12/22 14:07:19;;;;;;;3.45;1.48;;;;;;;;;;4951217;29;20146;-80
2022/12/22 14:09:48;;;;;;;3.30;1.15;;;;;;;;;;4951638;29;20082;-80
2022/12/22 14:12:23;;;;;;;2.88;0.93;;;;;;;;;;4937689;29;20067;-81
2022/12/22 14:14:51;;;;;;;3.85;1.00;;;;;;;;;;4937434;29;20059;-80
2022/12/22 14:18:09;;;;;;;2.25;0.60;;;;;;;;;;4967581;28;20067;-80
2022/12/22 14:20:36;;;;;;;2.83;1.00;;;;;;;;;;4895109;29;20095;-80
2022/12/22 14:23:06;;;;;;;3.00;1.73;;;;;;;;;;4967932;28;20086;-80
2022/12/22 14:25:35;;;;;;;4.85;0.80;;;;;;;;;;4941211;29;20098;-81
2022/12/22 14:28:03;;;;;;;3.45;0.73;;;;;;;;;;4923020;29;20070;-80
2022/12/22 14:30:33;;;;;;;4.32;1.40;;;;;;;;;;4921152;29;20052;-79
2022/12/22 14:33:27;;;;;;;3.20;1.55;;;;;;;;;;4933968;29;20139;-74
2022/12/22 14:36:14;;;;;;;6.43;1.02;;;;;;;;;;4935628;29;20052;-78
2022/12/22 14:39:01;;;;;;;4.55;1.50;;;;;;;;;;4935041;29;20048;-78
2022/12/22 14:41:50;;;;;;;4.05;1.13;;;;;;;;;;4923763;29;20059;-79
2022/12/22 14:44:28;;;;;;;5.20;1.23;;;;;;;;;;4948393;29;20111;-78
2022/12/22 14:47:16;;;;;;;2.88;1.15;;;;;;;;;;4920578;29;20313;-78
2022/12/22 14:50:03;;;;;;;5.43;1.70;;;;;;;;;;4934240;29;20063;-78
2022/12/22 14:52:50;;;;;;;3.35;1.80;;;;;;;;;;4936925;29;20444;-78
2022/12/22 14:55:32;;;;;;;7.15;1.42;;;;;;;;;;4936629;29;20059;-78
2022/12/22 14:58:09;;;;;;;3.75;1.35;;;;;;;;;;4936137;29;20049;-78
2022/12/22 15:00:41;;;;;;;7.85;1.30;;;;;;;;;;4953051;29;20062;-79
2022/12/22 15:03:31;;;;;;;3.65;1.65;;;;;;;;;;4938759;29;20424;-78
2022/12/22 15:06:21;;;;;;;6.03;1.55;;;;;;;;;;4937915;29;20082;-78
2022/12/22 15:08:48;;;;;;;7.00;1.95;;;;;;;;;;4936864;29;20401;-78
2022/12/22 15:11:16;;;;;;;6.70;1.30;;;;;;;;;;4922965;29;20404;-78
2022/12/22 15:13:44;;;;;;;3.60;1.48;;;;;;;;;;4937047;29;20059;-78
2022/12/22 15:16:15;;;;;;;5.70;1.45;;;;;;;;;;4922989;29;20051;-78
2022/12/22 15:18:42;;;;;;;7.00;1.98;;;;;;;;;;4936712;29;20060;-79
2022/12/22 15:21:12;;;;;;;11.60;2.50;;;;;;;;;;4936104;29;20051;-78
2022/12/22 15:23:40;;;;;;;7.57;2.00;;;;;;;;;;4936681;29;20051;-78
2022/12/22 15:26:06;;;;;;;7.65;1.77;;;;;;;;;;4952613;29;20059;-78
2022/12/22 15:28:33;;;;;;;7.38;1.30;;;;;;;;;;4939748;29;20052;-78
2022/12/22 15:31:01;;;;;;;5.35;1.35;;;;;;;;;;4935504;29;20132;-79
2022/12/22 15:33:28;;;;;;;4.00;1.67;;;;;;;;;;4919637;29;20063;-78
2022/12/22 15:35:55;;;;;;;6.70;2.05;;;;;;;;;;4952176;28;20091;-78
2022/12/22 15:38:23;;;;;;;4.35;1.40;;;;;;;;;;4919667;29;20057;-78
2022/12/22 15:40:50;;;;;;;6.90;1.75;;;;;;;;;;4920289;29;20055;-78
2022/12/22 15:43:17;;;;;;;8.80;1.48;;;;;;;;;;4955628;29;20056;-78
2022/12/22 15:46:04;;;;;;;9.68;2.22;;;;;;;;;;4951463;29;20055;-79
2022/12/22 15:48:33;;;;;;;7.72;2.45;;;;;;;;;;4925560;29;20059;-78
2022/12/22 15:51:01;;;;;;;12.35;2.35;;;;;;;;;;4938073;29;20055;-78
2022/12/22 15:53:28;;;;;;;15.27;5.03;;;;;;;;;;4952073;29;20385;-78
2022/12/22 15:55:57;;;;;;;13.82;3.53;;;;;;;;;;4935980;29;20087;-78
2022/12/22 15:58:31;;;;;;;6.35;2.13;;;;;;;;;;4937711;29;20059;-78
2022/12/22 16:00:57;;;;;;;7.38;1.63;;;;;;;;;;4952979;28;20068;-78
2022/12/22 16:03:24;;;;;;;6.80;1.60;;;;;;;;;;4933255;29;20048;-78
2022/12/22 16:06:22;;;;;;;;;;;;;;;;;;;;;
2022/12/22 16:08:53;;;;;;;9.13;1.90;;;;;;;;;;4953373;29;20424;-78
2022/12/22 16:11:20;;;;;;;7.15;2.00;;;;;;;;;;4967204;28;20051;-78
2022/12/22 16:13:47;;;;;;;4.80;1.65;;;;;;;;;;4918821;29;20412;-78
2022/12/22 16:16:14;;;;;;;10.43;2.42;;;;;;;;;;4946953;28;20067;-78
2022/12/22 16:18:41;;;;;;;5.82;2.20;;;;;;;;;;4949694;29;20052;-80
2022/12/22 16:21:16;;;;;;;8.00;2.20;;;;;;;;;;4935922;29;20062;-80
2022/12/22 16:23:44;;;;;;;7.68;2.58;;;;;;;;;;4919991;29;20447;-80
2022/12/22 16:26:17;;;;;;;4.80;2.00;;;;;;;;;;4938161;29;20055;-80
2022/12/22 16:28:43;;;;;;;5.07;1.77;;;;;;;;;;4971504;28;20051;-79
2022/12/22 16:31:21;;;;;;;9.90;3.20;;;;;;;;;;4939317;29;20531;-80
2022/12/22 16:33:49;;;;;;;8.48;2.90;;;;;;;;;;4954207;28;20062;-80
2022/12/22 16:36:16;;;;;;;8.75;3.20;;;;;;;;;;4948973;28;20511;-81
2022/12/22 16:38:46;;;;;;;7.70;2.80;;;;;;;;;;4937330;29;20067;-82
2022/12/22 16:41:23;;;;;;;11.55;3.70;;;;;;;;;;4951517;29;20055;-83
2022/12/22 16:43:52;;;;;;;10.75;2.67;;;;;;;;;;4921419;29;20047;-79
2022/12/22 16:46:20;;;;;;;7.53;2.78;;;;;;;;;;4922418;29;20056;-79
2022/12/22 16:48:49;;;;;;;7.57;2.00;;;;;;;;;;4926006;29;20075;-78
2022/12/22 16:51:32;;;;;;;5.30;1.70;;;;;;;;;;4940670;29;20286;-79
2022/12/22 16:54:00;;;;;;;7.80;1.63;;;;;;;;;;4923270;29;20063;-79
2022/12/22 16:56:29;;;;;;;6.85;1.90;;;;;;;;;;4938127;29;20051;-80
2022/12/22 16:58:56;;;;;;;5.63;1.52;;;;;;;;;;4922629;29;20140;-79
2022/12/22 17:01:29;;;;;;;9.77;2.20;;;;;;;;;;4921115;29;20183;-80
2022/12/22 17:03:57;;;;;;;6.53;1.92;;;;;;;;;;4953511;29;20054;-78
2022/12/22 17:06:24;;;;;;;8.07;1.92;;;;;;;;;;4961614;29;20052;-79
2022/12/22 17:08:50;;;;;;;6.30;1.83;;;;;;;;;;4958995;28;20062;-79
2022/12/22 17:11:20;;;;;;;8.27;2.40;;;;;;;;;;4944192;28;20042;-79
2022/12/22 17:13:48;;;;;;;6.15;2.08;;;;;;;;;;4974228;28;20051;-80
2022/12/22 17:16:19;;;;;;;7.57;2.50;;;;;;;;;;4959926;28;20043;-79
2022/12/22 17:18:47;;;;;;;7.90;2.00;;;;;;;;;;4947593;28;20402;-81
2022/12/22 17:21:22;;;;;;;10.40;2.25;;;;;;;;;;4929916;29;20055;-81
2022/12/22 17:23:52;;;;;;;9.00;2.70;;;;;;;;;;4954987;29;20076;-80
2022/12/22 17:26:20;;;;;;;11.38;2.50;;;;;;;;;;4983468;28;20066;-81
2022/12/22 17:28:48;;;;;;;11.25;2.08;;;;;;;;;;4950015;29;20059;-81
2022/12/22 17:31:17;;;;;;;10.13;2.13;;;;;;;;;;4958739;29;20052;-81
2022/12/22 17:33:46;;;;;;;8.85;3.35;;;;;;;;;;4956157;28;20075;-80
2022/12/22 17:36:19;;;;;;;33.00;13.68;;;;;;;;;;4939174;29;20082;-80
2022/12/22 17:38:47;;;;;;;17.15;7.22;;;;;;;;;;4939197;29;20056;-82
2022/12/22 17:41:15;;;;;;;8.48;3.22;;;;;;;;;;4940902;29;20086;-81
2022/12/22 17:43:42;;;;;;;12.35;2.50;;;;;;;;;;4954999;29;20052;-82
2022/12/22 17:46:15;;;;;;;12.07;3.17;;;;;;;;;;4936223;29;20131;-81
2022/12/22 17:48:43;;;;;;;9.15;2.50;;;;;;;;;;4922890;29;20055;-81
2022/12/22 17:51:25;;;;;;;10.45;2.28;;;;;;;;;;4959045;28;20463;-80
2022/12/22 17:53:53;;;;;;;12.10;2.28;;;;;;;;;;4948962;28;20080;-81
2022/12/22 17:56:22;;;;;;;9.68;2.38;;;;;;;;;;4934576;29;20102;-81
2022/12/22 17:58:50;;;;;;;14.75;3.33;;;;;;;;;;4953273;29;20064;-80
2022/12/22 18:01:23;;;;;;;10.82;2.58;;;;;;;;;;4938537;29;20091;-81
2022/12/22 18:03:51;;;;;;;12.30;2.30;;;;;;;;;;4923075;29;20055;-81
2022/12/22 18:06:19;;;;;;;11.77;2.03;;;;;;;;;;4958242;28;20056;-81
2022/12/22 18:08:47;;;;;;;13.98;3.30;;;;;;;;;;4929819;29;20079;-81
2022/12/22 18:11:14;;;;;;;15.57;5.03;;;;;;;;;;4954053;29;20139;-81
2022/12/22 18:13:42;;;;;;;14.30;3.83;;;;;;;;;;4949241;29;20126;-81
2022/12/22 18:16:16;;;;;;;12.18;3.35;;;;;;;;;;4943939;29;20055;-80
2022/12/22 18:18:45;;;;;;;13.23;2.83;;;;;;;;;;4936675;29;20082;-80
2022/12/22 18:21:17;;;;;;;19.50;5.05;;;;;;;;;;4921010;29;20059;-80
2022/12/22 18:23:46;;;;;;;13.50;3.33;;;;;;;;;;4942641;29;20056;-81
2022/12/22 18:26:22;;;;;;;20.52;4.95;;;;;;;;;;4938241;29;20055;-81
2022/12/22 18:28:49;;;;;;;16.60;4.10;;;;;;;;;;4920465;29;20066;-81
2022/12/22 18:31:16;;;;;;;17.17;3.67;;;;;;;;;;4939536;29;20647;-81
2022/12/22 18:33:43;;;;;;;15.85;3.40;;;;;;;;;;4946731;29;20091;-80
2022/12/22 18:36:31;;;;;;;15.05;3.40;;;;;;;;;;4923579;29;20058;-80
2022/12/22 18:38:59;;;;;;;19.77;3.33;;;;;;;;;;4922642;29;20064;-81
2022/12/22 18:41:27;;;;;;;15.23;3.25;;;;;;;;;;4922748;29;20059;-81
2022/12/22 18:43:54;;;;;;;16.45;3.78;;;;;;;;;;4940747;29;20052;-80
2022/12/22 18:46:22;;;;;;;18.92;4.85;;;;;;;;;;4955266;29;20055;-81
2022/12/22 18:48:49;;;;;;;16.77;3.92;;;;;;;;;;4924683;29;20059;-81
2022/12/22 18:51:24;;;;;;;10.45;4.03;;;;;;;;;;4927336;29;20089;-81
2022/12/22 18:53:52;;;;;;;11.18;2.67;;;;;;;;;;4938223;29;20083;-81
2022/12/22 18:56:19;;;;;;;15.15;3.30;;;;;;;;;;4936610;29;20094;-81
2022/12/22 18:58:46;;;;;;;10.73;2.90;;;;;;;;;;4950608;29;20055;-81
2022/12/22 19:01:17;;;;;;;11.82;3.60;;;;;;;;;;4934611;29;20055;-80